createdAt,value
2023-03-27T00:00:41.449Z,2.3
2023-03-27T00:06:07.859Z,2.3
2023-03-27T00:10:54.609Z,2.2
2023-03-27T00:16:00.614Z,2.2
2023-03-27T00:21:06.968Z,2.1
2023-03-27T00:26:13.906Z,2.1
2023-03-27T00:31:20.625Z,2.0
2023-03-27T00:36:26.751Z,2.0
2023-03-27T00:41:53.173Z,1.9
2023-03-27T00:46:39.581Z,1.9
2023-03-27T00:51:46.073Z,1.8
2023-03-27T00:56:52.477Z,1.8
2023-03-27T01:01:59.013Z,1.7
2023-03-27T01:07:05.236Z,1.7
2023-03-27T01:12:31.637Z,1.6
2023-03-27T01:17:18.025Z,1.6
2023-03-27T01:22:24.500Z,1.5
2023-03-27T01:27:54.921Z,1.5
2023-03-27T01:32:37.300Z,1.4
2023-03-27T01:37:43.643Z,1.4
2023-03-27T01:43:14.155Z,1.3
2023-03-27T01:47:56.463Z,1.3
2023-03-27T01:53:23.065Z,1.2
2023-03-27T01:57:59.480Z,1.2
2023-03-27T02:03:15.897Z,1.1
2023-03-27T02:09:06.348Z,1.1
2023-03-27T02:13:28.670Z,1.1
2023-03-27T02:18:35.085Z,1.0
2023-03-27T02:23:41.451Z,1.0
2023-03-27T02:28:47.834Z,0.9
2023-03-27T02:33:54.274Z,0.9
2023-03-27T02:39:20.667Z,0.8
2023-03-27T02:44:31.052Z,0.8
2023-03-27T02:49:33.472Z,0.8
2023-03-27T02:54:43.990Z,0.7
2023-03-27T02:59:26.313Z,0.7
2023-03-27T03:04:32.710Z,0.7
2023-03-27T03:09:40.548Z,0.7
2023-03-27T03:14:45.700Z,0.6
2023-03-27T03:20:12.109Z,0.6
2023-03-27T03:24:48.601Z,0.6
2023-03-27T03:30:04.985Z,0.6
2023-03-27T03:36:07.720Z,0.5
2023-03-27T03:40:46.023Z,0.5
2023-03-27T03:45:24.506Z,0.5
2023-03-27T03:50:55.472Z,0.5
2023-03-27T03:55:37.520Z,0.4
2023-03-27T04:00:43.925Z,0.4
2023-03-27T04:06:14.343Z,0.4
2023-03-27T04:10:56.850Z,0.4
2023-03-27T04:16:27.275Z,0.3
2023-03-27T04:21:09.529Z,0.3
2023-03-27T04:26:16.349Z,0.3
2023-03-27T04:31:22.434Z,0.3
2023-03-27T04:36:52.880Z,0.2
2023-03-27T04:41:35.162Z,0.2
2023-03-27T04:46:43.163Z,0.2
2023-03-27T04:57:18.627Z,0.2
2023-03-27T05:02:05.931Z,0.2
2023-03-27T05:07:12.439Z,0.2
2023-03-27T05:12:18.685Z,0.2
2023-03-27T05:17:25.146Z,0.2
2023-03-27T05:22:55.533Z,0.2
2023-03-27T05:27:37.947Z,0.3
2023-03-27T05:32:44.413Z,0.3
2023-03-27T05:37:50.707Z,0.3
2023-03-27T05:42:58.686Z,0.3
2023-03-27T05:48:05.173Z,0.4
2023-03-27T05:53:11.628Z,0.4
2023-03-27T05:58:17.993Z,0.4
2023-03-27T06:03:24.621Z,0.5
2023-03-27T06:08:30.884Z,0.5
2023-03-27T06:13:37.268Z,0.5
2023-03-27T06:18:43.664Z,0.6
2023-03-27T06:23:50.006Z,0.6
2023-03-27T06:39:09.387Z,0.7
2023-03-27T06:45:11.881Z,0.7
2023-03-27T06:49:22.142Z,0.8
2023-03-27T06:54:18.530Z,0.9
2023-03-27T07:00:01.630Z,1.0
2023-03-27T07:09:47.809Z,1.3
2023-03-27T07:14:54.182Z,1.4
2023-03-27T07:19:50.538Z,1.5
2023-03-27T07:25:06.991Z,1.7
2023-03-27T07:30:37.374Z,1.8
2023-03-27T07:35:27.318Z,1.9
2023-03-27T07:40:39.473Z,2.0
2023-03-27T07:46:00.624Z,2.3
2023-03-27T07:50:42.760Z,2.8
2023-03-27T07:55:49.166Z,3.7
2023-03-27T08:11:16.079Z,6.5
2023-03-27T08:16:14.660Z,7.3
2023-03-27T08:21:21.181Z,8.0
2023-03-27T08:26:27.594Z,8.9
2023-03-27T08:31:33.938Z,9.7
2023-03-27T08:36:40.312Z,10.9
2023-03-27T08:46:53.801Z,12.2
2023-03-27T08:52:01.241Z,13.0
2023-03-27T08:57:07.715Z,13.9
2023-03-27T09:02:14.287Z,14.2
2023-03-27T09:07:20.577Z,14.5
2023-03-27T09:12:50.945Z,15.1
2023-03-27T09:17:33.327Z,15.0
2023-03-27T09:22:59.803Z,15.3
2023-03-27T09:27:46.264Z,15.2
2023-03-27T09:32:53.802Z,15.0
2023-03-27T09:38:00.213Z,15.0
2023-03-27T09:43:06.526Z,15.3
2023-03-27T09:48:12.974Z,15.2
2023-03-27T09:53:19.363Z,15.1
2023-03-27T09:58:25.698Z,14.8
2023-03-27T10:03:32.140Z,14.8
2023-03-27T10:08:38.557Z,14.5
2023-03-27T10:13:44.934Z,13.6
2023-03-27T10:19:29.562Z,13.1
2023-03-27T10:24:17.899Z,12.6
2023-03-27T10:29:04.189Z,12.2
2023-03-27T10:34:10.574Z,12.4
2023-03-27T10:39:06.945Z,12.2
2023-03-27T10:45:17.488Z,13.9
2023-03-27T10:55:11.272Z,15.5
2023-03-27T11:00:17.592Z,16.3
2023-03-27T11:05:23.979Z,16.6
2023-03-27T11:25:48.531Z,15.1
2023-03-27T11:36:02.652Z,15.0
2023-03-27T11:41:09.147Z,15.3
2023-03-27T11:47:27.662Z,15.8
2023-03-27T11:57:48.418Z,16.8
2023-03-27T12:01:54.670Z,17.3
2023-03-27T12:07:04.808Z,17.7
2023-03-27T12:12:11.562Z,17.9
2023-03-27T12:17:13.964Z,18.1
2023-03-27T12:22:00.434Z,18.2
2023-03-27T12:27:06.808Z,18.1
2023-03-27T12:32:13.287Z,17.7
2023-03-27T12:37:19.623Z,17.3
2023-03-27T12:47:34.356Z,16.5
2023-03-27T12:52:41.741Z,16.3
2023-03-27T12:57:48.417Z,16.3
2023-03-27T13:02:54.885Z,16.3
2023-03-27T13:08:25.412Z,16.3
2023-03-27T13:13:07.819Z,16.4
2023-03-27T13:18:14.210Z,16.5
2023-03-27T13:23:20.612Z,16.7
2023-03-27T13:28:27.005Z,16.8
2023-03-27T13:33:33.367Z,16.9
2023-03-27T13:38:39.863Z,17.0
2023-03-27T13:43:46.258Z,17.0
2023-03-27T13:49:17.251Z,16.9
2023-03-27T13:53:59.578Z,16.9
2023-03-27T13:59:30.238Z,16.8
2023-03-27T14:04:12.657Z,16.9
2023-03-27T14:09:19.013Z,16.9
2023-03-27T14:14:25.388Z,16.9
2023-03-27T14:19:31.818Z,16.9
2023-03-27T14:24:38.204Z,16.9
2023-03-27T14:30:08.612Z,16.9
2023-03-27T14:35:11.012Z,16.9
2023-03-27T14:39:57.325Z,16.9
2023-03-27T14:45:03.698Z,17.1
2023-03-27T14:50:30.161Z,17.2
2023-03-27T14:55:40.501Z,17.3
2023-03-27T15:00:22.875Z,17.3
2023-03-27T15:05:53.280Z,17.3
2023-03-27T15:10:55.694Z,17.4
2023-03-27T15:15:42.084Z,17.4
2023-03-27T15:21:08.630Z,17.5
2023-03-27T15:26:08.973Z,17.4
2023-03-27T15:31:21.384Z,17.3
2023-03-27T15:41:14.125Z,16.7
2023-03-27T15:46:20.501Z,16.3
2023-03-27T15:51:26.864Z,15.9
2023-03-27T16:01:39.809Z,15.1
2023-03-27T16:06:46.143Z,14.8
2023-03-27T16:11:52.509Z,14.4
2023-03-27T16:16:59.111Z,14.1
2023-03-27T16:22:05.400Z,13.8
2023-03-27T16:27:11.901Z,13.6
2023-03-27T16:32:18.416Z,13.3
2023-03-27T16:37:44.821Z,13.1
2023-03-27T16:42:31.180Z,12.9
2023-03-27T16:47:37.642Z,12.7
2023-03-27T16:59:31.861Z,11.9
2023-03-27T17:05:13.402Z,11.9
2023-03-27T17:09:45.679Z,11.6
2023-03-27T17:14:52.248Z,11.3
2023-03-27T17:19:48.603Z,11.0
2023-03-27T17:25:05.071Z,10.7
2023-03-27T17:30:11.426Z,10.5
2023-03-27T17:35:21.642Z,10.2
2023-03-27T17:40:28.006Z,9.9
2023-03-27T17:45:34.464Z,9.6
2023-03-27T17:51:09.032Z,9.4
2023-03-27T17:55:47.453Z,9.1
2023-03-27T18:00:53.918Z,8.9
2023-03-27T18:07:12.433Z,8.7
2023-03-27T18:11:26.724Z,8.5
2023-03-27T18:16:13.100Z,8.2
2023-03-27T18:21:19.527Z,8.0
2023-03-27T18:26:26.110Z,7.9
2023-03-27T18:31:32.677Z,7.7
2023-03-27T18:36:39.000Z,7.5
2023-03-27T18:42:09.408Z,7.4
2023-03-27T18:46:51.806Z,7.2
2023-03-27T18:52:42.229Z,7.0
2023-03-27T18:57:04.597Z,6.9
2023-03-27T19:02:10.973Z,6.7
2023-03-27T19:07:44.787Z,6.6
2023-03-27T19:12:23.694Z,6.4
2023-03-27T19:18:32.217Z,6.3
2023-03-27T19:22:36.481Z,6.2
2023-03-27T19:27:38.950Z,6.0
2023-03-27T19:33:13.300Z,5.9
2023-03-27T19:38:39.854Z,5.8
2023-03-27T19:42:52.089Z,5.6
2023-03-27T19:48:08.527Z,5.5
2023-03-27T19:53:08.767Z,5.4
2023-03-27T19:58:41.412Z,5.2
2023-03-27T20:03:27.836Z,5.0
2023-03-27T20:08:34.129Z,5.0
2023-03-27T20:13:53.184Z,4.8
2023-03-27T20:18:46.941Z,4.7
2023-03-27T20:23:53.315Z,4.6
2023-03-27T20:29:23.725Z,4.5
2023-03-27T20:34:30.147Z,4.4
2023-03-27T20:39:12.453Z,4.3
2023-03-27T20:44:19.053Z,4.2
2023-03-27T20:55:05.078Z,4.1
2023-03-27T21:00:32.490Z,4.0
2023-03-27T21:05:40.850Z,3.9
2023-03-27T21:20:23.929Z,3.7
2023-03-27T21:25:00.242Z,3.6
2023-03-27T21:30:46.557Z,3.5
2023-03-27T21:35:23.211Z,3.5
2023-03-27T21:40:29.593Z,3.4
2023-03-27T21:45:35.980Z,3.3
2023-03-27T21:50:42.410Z,3.3
2023-03-27T21:56:12.819Z,3.2
2023-03-27T22:00:55.146Z,3.2
2023-03-27T22:11:32.038Z,3.1
2023-03-27T22:16:34.528Z,3.0
2023-03-27T22:21:20.915Z,2.9
2023-03-27T22:26:27.281Z,2.9
2023-03-27T22:31:33.754Z,2.8
2023-03-27T22:36:40.081Z,2.8
2023-03-27T22:41:46.431Z,2.7
2023-03-27T22:46:52.858Z,2.7
2023-03-27T22:51:59.207Z,2.6
2023-03-27T22:57:05.707Z,2.6
2023-03-27T23:02:12.029Z,2.5
2023-03-27T23:07:18.382Z,2.5
2023-03-27T23:12:24.741Z,2.4
2023-03-27T23:18:43.273Z,2.4
2023-03-27T23:22:57.581Z,2.3
2023-03-27T23:27:43.893Z,2.3
2023-03-27T23:32:50.527Z,2.2
2023-03-27T23:37:56.836Z,2.1
2023-03-27T23:43:17.281Z,2.1
2023-03-27T23:48:09.606Z,2.0
2023-03-27T23:53:05.970Z,2.0
2023-03-27T23:58:46.499Z,1.9
